Snow/Ice From: 16-12-2017 16:00 Until: 17-12-2017 16:00 warning for: Snow/Ice Level: Yellow info button

Although rather usual in this region, locally or potentially dangerous phenomena are expected. (such as local winds, summer thunderstorms, rising streams or high waves) Be aware and pay attention to the latest weather updates, especially if you carry out activities exposed to weather or close to a stream or shoreline. 


Meteo18 Weather Cam more information Meteo18 Weather Cam


Thunder radar more information blitzortung!


warning for Snow/Ice more information rain snow radar


Visit our other weather sites:

Template documentation
and downloads

And another site



Weather Underground History page Text

Daily Summary for March 14, 2017 Units:  Both    English   Metric
« Previous Day
Next Day »
Daily Weekly Monthly Yearly Custom
  High: Low: Average:
Temperature: 60.3 °F /  15.7 °C 43.2 °F /  6.2 °C 50.2 °F /  10.1 °C
Dew Point: 48.4 °F /  9.1 °C 39.6 °F /  4.2 °C 43.5 °F /  6.4 °C
Humidity: 94 % 53 % 79 %
Wind Speed: 10 mph /  16.1 km/h - 2.2 mph /  3.6 km/h
Wind Gust: 13 mph /  20.9 km/h - -
Wind:- - SW
Pressure: 30.6 in /  1035.4 hPa 30.5 in /  1033.1 hPa -
Precipitation: 0 in /  0.0 mm    
Historical Graphs
 
 
Tabular Data for March 14, 2017
Time Temperature Dew Point Pressure Wind Wind Speed Wind Gust Humidity Rainfall Rate (Hourly)
00:02 48 °F /  8.9 °C 44.4 °F /  6.9 °C 30.5 in /  1033.1 hPa NNW 1 mph /  1.6 km/h 6 mph /  9.7 km/h 87 % 0 in /  0.0 mm
00:07 48 °F /  8.9 °C 44.4 °F /  6.9 °C 30.5 in /  1033.1 hPa NNE 3 mph /  4.8 km/h 6 mph /  9.7 km/h 87 % 0 in /  0.0 mm
00:12 47.8 °F /  8.8 °C 44.2 °F /  6.8 °C 30.5 in /  1033.1 hPa Calm   6 mph /  9.7 km/h 87 % 0 in /  0.0 mm
00:17 47.8 °F /  8.8 °C 44.2 °F /  6.8 °C 30.5 in /  1033.1 hPa NNW 1 mph /  1.6 km/h 6 mph /  9.7 km/h 87 % 0 in /  0.0 mm
00:22 47.8 °F /  8.8 °C 44.2 °F /  6.8 °C 30.5 in /  1033.1 hPa NNW 1 mph /  1.6 km/h 7 mph /  11.3 km/h 87 % 0 in /  0.0 mm
00:27 47.8 °F /  8.8 °C 44.2 °F /  6.8 °C 30.5 in /  1033.1 hPa North 2 mph /  3.2 km/h 7 mph /  11.3 km/h 87 % 0 in /  0.0 mm
00:32 47.7 °F /  8.7 °C 44.1 °F /  6.7 °C 30.5 in /  1033.1 hPa Calm   5 mph /  8.0 km/h 87 % 0 in /  0.0 mm
00:37 47.7 °F /  8.7 °C 44.1 °F /  6.7 °C 30.5 in /  1033.1 hPa NNE 3 mph /  4.8 km/h 7 mph /  11.3 km/h 87 % 0 in /  0.0 mm
00:42 47.7 °F /  8.7 °C 44.1 °F /  6.7 °C 30.5 in /  1033.4 hPa NNW 2 mph /  3.2 km/h 7 mph /  11.3 km/h 87 % 0 in /  0.0 mm
00:52 47.7 °F /  8.7 °C 44.1 °F /  6.7 °C 30.5 in /  1033.4 hPa NNW 4 mph /  6.4 km/h 7 mph /  11.3 km/h 87 % 0 in /  0.0 mm
00:57 47.7 °F /  8.7 °C 44.1 °F /  6.7 °C 30.5 in /  1033.4 hPa NNW 4 mph /  6.4 km/h 8 mph /  12.9 km/h 87 % 0 in /  0.0 mm
01:02 47.5 °F /  8.6 °C 43.9 °F /  6.6 °C 30.5 in /  1033.4 hPa NNW 4 mph /  6.4 km/h 8 mph /  12.9 km/h 87 % 0 in /  0.0 mm
01:07 47.3 °F /  8.5 °C 43.9 °F /  6.6 °C 30.5 in /  1033.4 hPa NNE 3 mph /  4.8 km/h 8 mph /  12.9 km/h 88 % 0 in /  0.0 mm
01:12 47.3 °F /  8.5 °C 43.9 °F /  6.6 °C 30.5 in /  1033.4 hPa NNE 2 mph /  3.2 km/h 7 mph /  11.3 km/h 88 % 0 in /  0.0 mm
01:17 47.1 °F /  8.4 °C 43.7 °F /  6.5 °C 30.5 in /  1033.4 hPa North 3 mph /  4.8 km/h 7 mph /  11.3 km/h 88 % 0 in /  0.0 mm
01:22 47.1 °F /  8.4 °C 43.7 °F /  6.5 °C 30.5 in /  1033.4 hPa NNW 1 mph /  1.6 km/h 7 mph /  11.3 km/h 88 % 0 in /  0.0 mm
01:32 47.1 °F /  8.4 °C 43.7 °F /  6.5 °C 30.5 in /  1033.7 hPa Calm   6 mph /  9.7 km/h 88 % 0 in /  0.0 mm
01:42 46.8 °F /  8.2 °C 43.3 °F /  6.3 °C 30.5 in /  1033.7 hPa NNW 1 mph /  1.6 km/h 2 mph /  3.2 km/h 88 % 0 in /  0.0 mm
01:47 46.9 °F /  8.3 °C 43.5 °F /  6.4 °C 30.5 in /  1033.4 hPa NNW 1 mph /  1.6 km/h 4 mph /  6.4 km/h 88 % 0 in /  0.0 mm
01:52 46.9 °F /  8.3 °C 43.5 °F /  6.4 °C 30.5 in /  1033.7 hPa NNW 2 mph /  3.2 km/h 4 mph /  6.4 km/h 88 % 0 in /  0.0 mm
01:57 46.9 °F /  8.3 °C 43.5 °F /  6.4 °C 30.5 in /  1033.7 hPa NW 1 mph /  1.6 km/h 4 mph /  6.4 km/h 88 % 0 in /  0.0 mm
02:02 46.8 °F /  8.2 °C 43.3 °F /  6.3 °C 30.5 in /  1033.7 hPa NW 1 mph /  1.6 km/h 3 mph /  4.8 km/h 88 % 0 in /  0.0 mm
02:12 46.6 °F /  8.1 °C 43.2 °F /  6.2 °C 30.5 in /  1033.7 hPa NW 2 mph /  3.2 km/h 3 mph /  4.8 km/h 88 % 0 in /  0.0 mm
02:17 46.4 °F /  8.0 °C 43 °F /  6.1 °C 30.5 in /  1033.7 hPa NNW 1 mph /  1.6 km/h 3 mph /  4.8 km/h 88 % 0 in /  0.0 mm
02:22 46.2 °F /  7.9 °C 43.2 °F /  6.2 °C 30.5 in /  1033.7 hPa Calm   3 mph /  4.8 km/h 89 % 0 in /  0.0 mm
02:27 46.2 °F /  7.9 °C 43.2 °F /  6.2 °C 30.5 in /  1033.7 hPa NNW 2 mph /  3.2 km/h 4 mph /  6.4 km/h 89 % 0 in /  0.0 mm
02:32 46.2 °F /  7.9 °C 43.2 °F /  6.2 °C 30.5 in /  1033.7 hPa Calm   4 mph /  6.4 km/h 89 % 0 in /  0.0 mm
02:37 46 °F /  7.8 °C 43 °F /  6.1 °C 30.5 in /  1033.7 hPa North 2 mph /  3.2 km/h 3 mph /  4.8 km/h 89 % 0 in /  0.0 mm
02:42 46 °F /  7.8 °C 43 °F /  6.1 °C 30.5 in /  1033.7 hPa NNE 3 mph /  4.8 km/h 4 mph /  6.4 km/h 89 % 0 in /  0.0 mm
02:47 46 °F /  7.8 °C 43 °F /  6.1 °C 30.5 in /  1033.7 hPa North 2 mph /  3.2 km/h 4 mph /  6.4 km/h 89 % 0 in /  0.0 mm
02:52 46 °F /  7.8 °C 43.3 °F /  6.3 °C 30.5 in /  1033.4 hPa NNW 3 mph /  4.8 km/h 4 mph /  6.4 km/h 90 % 0 in /  0.0 mm
02:57 46 °F /  7.8 °C 43 °F /  6.1 °C 30.5 in /  1033.4 hPa NNE 3 mph /  4.8 km/h 5 mph /  8.0 km/h 89 % 0 in /  0.0 mm
03:02 46 °F /  7.8 °C 43 °F /  6.1 °C 30.5 in /  1033.4 hPa North 2 mph /  3.2 km/h 5 mph /  8.0 km/h 89 % 0 in /  0.0 mm
03:07 46 °F /  7.8 °C 43 °F /  6.1 °C 30.5 in /  1033.4 hPa NNE 2 mph /  3.2 km/h 5 mph /  8.0 km/h 89 % 0 in /  0.0 mm
03:12 45.7 °F /  7.6 °C 42.6 °F /  5.9 °C 30.5 in /  1033.7 hPa NNE 2 mph /  3.2 km/h 5 mph /  8.0 km/h 89 % 0 in /  0.0 mm
03:17 45.9 °F /  7.7 °C 43.2 °F /  6.2 °C 30.5 in /  1033.7 hPa North 1 mph /  1.6 km/h 5 mph /  8.0 km/h 90 % 0 in /  0.0 mm
03:22 46 °F /  7.8 °C 43.3 °F /  6.3 °C 30.5 in /  1033.4 hPa North 1 mph /  1.6 km/h 5 mph /  8.0 km/h 90 % 0 in /  0.0 mm
03:32 46.4 °F /  8.0 °C 43 °F /  6.1 °C 30.5 in /  1033.4 hPa NNW 2 mph /  3.2 km/h 6 mph /  9.7 km/h 88 % 0 in /  0.0 mm
03:42 46.6 °F /  8.1 °C 43.2 °F /  6.2 °C 30.5 in /  1033.4 hPa NNW 2 mph /  3.2 km/h 5 mph /  8.0 km/h 88 % 0 in /  0.0 mm
03:47 46.6 °F /  8.1 °C 43.2 °F /  6.2 °C 30.5 in /  1033.4 hPa NNW 1 mph /  1.6 km/h 5 mph /  8.0 km/h 88 % 0 in /  0.0 mm
03:57 46.4 °F /  8.0 °C 43 °F /  6.1 °C 30.5 in /  1033.4 hPa North 4 mph /  6.4 km/h 5 mph /  8.0 km/h 88 % 0 in /  0.0 mm
04:02 46.4 °F /  8.0 °C 43 °F /  6.1 °C 30.5 in /  1033.4 hPa North 3 mph /  4.8 km/h 7 mph /  11.3 km/h 88 % 0 in /  0.0 mm
04:12 46 °F /  7.8 °C 42.6 °F /  5.9 °C 30.5 in /  1033.4 hPa NNW 2 mph /  3.2 km/h 7 mph /  11.3 km/h 88 % 0 in /  0.0 mm
04:17 45.9 °F /  7.7 °C 42.4 °F /  5.8 °C 30.5 in /  1033.4 hPa NNW 2 mph /  3.2 km/h 6 mph /  9.7 km/h 88 % 0 in /  0.0 mm
04:22 45.7 °F /  7.6 °C 42.3 °F /  5.7 °C 30.5 in /  1033.4 hPa NW 4 mph /  6.4 km/h 6 mph /  9.7 km/h 88 % 0 in /  0.0 mm
04:27 45.9 °F /  7.7 °C 42.8 °F /  6.0 °C 30.5 in /  1033.1 hPa NNW 5 mph /  8.0 km/h 6 mph /  9.7 km/h 89 % 0 in /  0.0 mm
04:32 45.9 °F /  7.7 °C 42.8 °F /  6.0 °C 30.5 in /  1033.1 hPa North 3 mph /  4.8 km/h 6 mph /  9.7 km/h 89 % 0 in /  0.0 mm
04:37 45.7 °F /  7.6 °C 42.3 °F /  5.7 °C 30.5 in /  1033.1 hPa NW 3 mph /  4.8 km/h 6 mph /  9.7 km/h 88 % 0 in /  0.0 mm
04:42 45.5 °F /  7.5 °C 42.4 °F /  5.8 °C 30.5 in /  1033.1 hPa NW 2 mph /  3.2 km/h 5 mph /  8.0 km/h 89 % 0 in /  0.0 mm
04:52 45.1 °F /  7.3 °C 42.1 °F /  5.6 °C 30.5 in /  1033.1 hPa NNW 3 mph /  4.8 km/h 5 mph /  8.0 km/h 89 % 0 in /  0.0 mm
04:57 45 °F /  7.2 °C 41.9 °F /  5.5 °C 30.5 in /  1033.1 hPa NW 2 mph /  3.2 km/h 5 mph /  8.0 km/h 89 % 0 in /  0.0 mm
05:02 45 °F /  7.2 °C 42.3 °F /  5.7 °C 30.5 in /  1033.1 hPa NW 1 mph /  1.6 km/h 4 mph /  6.4 km/h 90 % 0 in /  0.0 mm
05:12 44.8 °F /  7.1 °C 42.1 °F /  5.6 °C 30.5 in /  1033.1 hPa NNW 2 mph /  3.2 km/h 4 mph /  6.4 km/h 90 % 0 in /  0.0 mm
05:17 44.8 °F /  7.1 °C 42.1 °F /  5.6 °C 30.5 in /  1033.4 hPa NW 3 mph /  4.8 km/h 5 mph /  8.0 km/h 90 % 0 in /  0.0 mm
05:22 44.8 °F /  7.1 °C 42.1 °F /  5.6 °C 30.5 in /  1033.1 hPa NW 1 mph /  1.6 km/h 5 mph /  8.0 km/h 90 % 0 in /  0.0 mm
05:32 45 °F /  7.2 °C 42.3 °F /  5.7 °C 30.5 in /  1033.4 hPa North 1 mph /  1.6 km/h 4 mph /  6.4 km/h 90 % 0 in /  0.0 mm
05:37 44.8 °F /  7.1 °C 42.1 °F /  5.6 °C 30.5 in /  1033.4 hPa NNW 2 mph /  3.2 km/h 4 mph /  6.4 km/h 90 % 0 in /  0.0 mm
05:42 44.8 °F /  7.1 °C 42.1 °F /  5.6 °C 30.5 in /  1033.4 hPa NNW 1 mph /  1.6 km/h 6 mph /  9.7 km/h 90 % 0 in /  0.0 mm
05:47 44.4 °F /  6.9 °C 41.9 °F /  5.5 °C 30.5 in /  1033.4 hPa NNW 2 mph /  3.2 km/h 6 mph /  9.7 km/h 91 % 0 in /  0.0 mm
05:52 44.4 °F /  6.9 °C 41.9 °F /  5.5 °C 30.5 in /  1033.4 hPa NNW 1 mph /  1.6 km/h 6 mph /  9.7 km/h 91 % 0 in /  0.0 mm
05:57 44.4 °F /  6.9 °C 41.9 °F /  5.5 °C 30.5 in /  1033.4 hPa North 3 mph /  4.8 km/h 3 mph /  4.8 km/h 91 % 0 in /  0.0 mm
06:02 44.4 °F /  6.9 °C 41.9 °F /  5.5 °C 30.5 in /  1033.4 hPa NNW 1 mph /  1.6 km/h 4 mph /  6.4 km/h 91 % 0 in /  0.0 mm
06:12 43.9 °F /  6.6 °C 41.2 °F /  5.1 °C 30.5 in /  1033.4 hPa Calm   4 mph /  6.4 km/h 90 % 0 in /  0.0 mm
06:17 43.3 °F /  6.3 °C 40.8 °F /  4.9 °C 30.5 in /  1033.4 hPa North 2 mph /  3.2 km/h 3 mph /  4.8 km/h 91 % 0 in /  0.0 mm
06:22 43.2 °F /  6.2 °C 40.6 °F /  4.8 °C 30.5 in /  1033.4 hPa NNE 1 mph /  1.6 km/h 3 mph /  4.8 km/h 91 % 0 in /  0.0 mm
06:32 43.3 °F /  6.3 °C 41.5 °F /  5.3 °C 30.5 in /  1033.4 hPa NNE 2 mph /  3.2 km/h 2 mph /  3.2 km/h 93 % 0 in /  0.0 mm
06:37 43.5 °F /  6.4 °C 41.7 °F /  5.4 °C 30.5 in /  1033.4 hPa NNW 2 mph /  3.2 km/h 4 mph /  6.4 km/h 93 % 0 in /  0.0 mm
06:42 43.5 °F /  6.4 °C 41.7 °F /  5.4 °C 30.5 in /  1033.7 hPa NNE 2 mph /  3.2 km/h 4 mph /  6.4 km/h 93 % 0 in /  0.0 mm
06:52 43.9 °F /  6.6 °C 41.7 °F /  5.4 °C 30.5 in /  1033.7 hPa Calm   5 mph /  8.0 km/h 92 % 0 in /  0.0 mm
07:02 43.9 °F /  6.6 °C 41.9 °F /  5.5 °C 30.5 in /  1033.7 hPa NNE 3 mph /  4.8 km/h 6 mph /  9.7 km/h 93 % 0 in /  0.0 mm
07:12 44.1 °F /  6.7 °C 41.9 °F /  5.5 °C 30.5 in /  1033.7 hPa NNE 2 mph /  3.2 km/h 5 mph /  8.0 km/h 92 % 0 in /  0.0 mm
07:17 44.2 °F /  6.8 °C 42.1 °F /  5.6 °C 30.5 in /  1034.1 hPa NE 3 mph /  4.8 km/h 5 mph /  8.0 km/h 92 % 0 in /  0.0 mm
07:22 44.4 °F /  6.9 °C 42.3 °F /  5.7 °C 30.5 in /  1034.1 hPa NNW 3 mph /  4.8 km/h 5 mph /  8.0 km/h 92 % 0 in /  0.0 mm
07:32 44.6 °F /  7.0 °C 42.4 °F /  5.8 °C 30.5 in /  1034.1 hPa NNE 2 mph /  3.2 km/h 8 mph /  12.9 km/h 92 % 0 in /  0.0 mm
07:37 44.6 °F /  7.0 °C 42.4 °F /  5.8 °C 30.5 in /  1034.1 hPa ENE 2 mph /  3.2 km/h 8 mph /  12.9 km/h 92 % 0 in /  0.0 mm
07:42 44.8 °F /  7.1 °C 42.6 °F /  5.9 °C 30.5 in /  1034.1 hPa NNE 3 mph /  4.8 km/h 8 mph /  12.9 km/h 92 % 0 in /  0.0 mm
07:47 44.8 °F /  7.1 °C 42.6 °F /  5.9 °C 30.5 in /  1034.1 hPa NE 1 mph /  1.6 km/h 5 mph /  8.0 km/h 92 % 0 in /  0.0 mm
07:52 44.8 °F /  7.1 °C 42.6 °F /  5.9 °C 30.5 in /  1034.4 hPa NNW 3 mph /  4.8 km/h 5 mph /  8.0 km/h 92 % 0 in /  0.0 mm
07:57 45 °F /  7.2 °C 43 °F /  6.1 °C 30.5 in /  1034.4 hPa NNW 2 mph /  3.2 km/h 8 mph /  12.9 km/h 93 % 0 in /  0.0 mm
08:02 44.8 °F /  7.1 °C 42.8 °F /  6.0 °C 30.5 in /  1034.4 hPa NNE 2 mph /  3.2 km/h 8 mph /  12.9 km/h 93 % 0 in /  0.0 mm
08:07 44.8 °F /  7.1 °C 42.8 °F /  6.0 °C 30.5 in /  1034.4 hPa NNE 5 mph /  8.0 km/h 6 mph /  9.7 km/h 93 % 0 in /  0.0 mm
08:12 44.8 °F /  7.1 °C 42.8 °F /  6.0 °C 30.5 in /  1034.4 hPa NNE 4 mph /  6.4 km/h 6 mph /  9.7 km/h 93 % 0 in /  0.0 mm
08:17 44.8 °F /  7.1 °C 42.8 °F /  6.0 °C 30.6 in /  1034.8 hPa North 3 mph /  4.8 km/h 11 mph /  17.7 km/h 93 % 0 in /  0.0 mm
08:22 45 °F /  7.2 °C 43 °F /  6.1 °C 30.6 in /  1034.8 hPa NE 4 mph /  6.4 km/h 11 mph /  17.7 km/h 93 % 0 in /  0.0 mm
08:27 45 °F /  7.2 °C 43 °F /  6.1 °C 30.6 in /  1034.8 hPa NNW 4 mph /  6.4 km/h 9 mph /  14.5 km/h 93 % 0 in /  0.0 mm
08:32 44.8 °F /  7.1 °C 42.8 °F /  6.0 °C 30.6 in /  1034.8 hPa North 3 mph /  4.8 km/h 9 mph /  14.5 km/h 93 % 0 in /  0.0 mm
08:42 45 °F /  7.2 °C 43 °F /  6.1 °C 30.6 in /  1034.8 hPa NE 1 mph /  1.6 km/h 11 mph /  17.7 km/h 93 % 0 in /  0.0 mm
08:52 45.1 °F /  7.3 °C 43.2 °F /  6.2 °C 30.6 in /  1034.8 hPa NNE 10 mph /  16.1 km/h 11 mph /  17.7 km/h 93 % 0 in /  0.0 mm
08:57 45 °F /  7.2 °C 43 °F /  6.1 °C 30.6 in /  1034.8 hPa NE 6 mph /  9.7 km/h 11 mph /  17.7 km/h 93 % 0 in /  0.0 mm
09:02 44.8 °F /  7.1 °C 42.8 °F /  6.0 °C 30.6 in /  1034.8 hPa NNE 5 mph /  8.0 km/h 11 mph /  17.7 km/h 93 % 0 in /  0.0 mm
09:12 44.8 °F /  7.1 °C 43.2 °F /  6.2 °C 30.6 in /  1035.1 hPa North 4 mph /  6.4 km/h 13 mph /  20.9 km/h 94 % 0 in /  0.0 mm
09:17 44.8 °F /  7.1 °C 43.2 °F /  6.2 °C 30.6 in /  1035.1 hPa North 1 mph /  1.6 km/h 13 mph /  20.9 km/h 94 % 0 in /  0.0 mm
09:22 45 °F /  7.2 °C 43.3 °F /  6.3 °C 30.6 in /  1035.1 hPa NNW 3 mph /  4.8 km/h 11 mph /  17.7 km/h 94 % 0 in /  0.0 mm
09:32 45.1 °F /  7.3 °C 43.5 °F /  6.4 °C 30.6 in /  1035.1 hPa NE 3 mph /  4.8 km/h 7 mph /  11.3 km/h 94 % 0 in /  0.0 mm
09:42 45.1 °F /  7.3 °C 43.2 °F /  6.2 °C 30.6 in /  1035.1 hPa NE 7 mph /  11.3 km/h 10 mph /  16.1 km/h 93 % 0 in /  0.0 mm
09:47 45.3 °F /  7.4 °C 43.3 °F /  6.3 °C 30.6 in /  1035.1 hPa NNE 6 mph /  9.7 km/h 11 mph /  17.7 km/h 93 % 0 in /  0.0 mm
09:52 45.5 °F /  7.5 °C 43.5 °F /  6.4 °C 30.6 in /  1035.1 hPa NNE 2 mph /  3.2 km/h 11 mph /  17.7 km/h 93 % 0 in /  0.0 mm
09:57 45.5 °F /  7.5 °C 43.5 °F /  6.4 °C 30.6 in /  1035.1 hPa NNE 6 mph /  9.7 km/h 11 mph /  17.7 km/h 93 % 0 in /  0.0 mm
10:02 45.7 °F /  7.6 °C 43.7 °F /  6.5 °C 30.6 in /  1035.1 hPa NNW 2 mph /  3.2 km/h 9 mph /  14.5 km/h 93 % 0 in /  0.0 mm
10:12 45.9 °F /  7.7 °C 43.9 °F /  6.6 °C 30.6 in /  1035.1 hPa North 5 mph /  8.0 km/h 8 mph /  12.9 km/h 93 % 0 in /  0.0 mm
10:17 46 °F /  7.8 °C 44.1 °F /  6.7 °C 30.6 in /  1035.1 hPa NNE 9 mph /  14.5 km/h 9 mph /  14.5 km/h 93 % 0 in /  0.0 mm
10:22 46.2 °F /  7.9 °C 44.2 °F /  6.8 °C 30.6 in /  1035.1 hPa NNW 3 mph /  4.8 km/h 8 mph /  12.9 km/h 93 % 0 in /  0.0 mm
10:32 46.2 °F /  7.9 °C 44.2 °F /  6.8 °C 30.6 in /  1035.1 hPa NE 4 mph /  6.4 km/h 9 mph /  14.5 km/h 93 % 0 in /  0.0 mm
10:37 46.2 °F /  7.9 °C 44.1 °F /  6.7 °C 30.6 in /  1035.4 hPa NNE 3 mph /  4.8 km/h 9 mph /  14.5 km/h 92 % 0 in /  0.0 mm
10:42 46.8 °F /  8.2 °C 44.8 °F /  7.1 °C 30.6 in /  1035.4 hPa North 7 mph /  11.3 km/h 10 mph /  16.1 km/h 93 % 0 in /  0.0 mm
10:47 46.8 °F /  8.2 °C 44.8 °F /  7.1 °C 30.6 in /  1035.4 hPa NNW 4 mph /  6.4 km/h 10 mph /  16.1 km/h 93 % 0 in /  0.0 mm
10:52 46.8 °F /  8.2 °C 44.6 °F /  7.0 °C 30.6 in /  1035.4 hPa NNW 3 mph /  4.8 km/h 10 mph /  16.1 km/h 92 % 0 in /  0.0 mm
10:57 46.9 °F /  8.3 °C 44.8 °F /  7.1 °C 30.6 in /  1035.1 hPa West 1 mph /  1.6 km/h 8 mph /  12.9 km/h 92 % 0 in /  0.0 mm
11:02 47.3 °F /  8.5 °C 45.1 °F /  7.3 °C 30.6 in /  1035.1 hPa NNW 2 mph /  3.2 km/h 8 mph /  12.9 km/h 92 % 0 in /  0.0 mm
11:12 48.2 °F /  9.0 °C 45.7 °F /  7.6 °C 30.6 in /  1035.1 hPa NW 2 mph /  3.2 km/h 8 mph /  12.9 km/h 91 % 0 in /  0.0 mm
11:17 48.7 °F /  9.3 °C 45.9 °F /  7.7 °C 30.6 in /  1035.1 hPa NNE 1 mph /  1.6 km/h 8 mph /  12.9 km/h 90 % 0 in /  0.0 mm
11:22 49.1 °F /  9.5 °C 45.7 °F /  7.6 °C 30.6 in /  1035.4 hPa NNW 2 mph /  3.2 km/h 8 mph /  12.9 km/h 88 % 0 in /  0.0 mm
11:27 49.3 °F /  9.6 °C 45.9 °F /  7.7 °C 30.6 in /  1035.1 hPa NNW 3 mph /  4.8 km/h 10 mph /  16.1 km/h 88 % 0 in /  0.0 mm
11:32 49.5 °F /  9.7 °C 46.4 °F /  8.0 °C 30.6 in /  1035.1 hPa NE 10 mph /  16.1 km/h 10 mph /  16.1 km/h 89 % 0 in /  0.0 mm
11:37 49.5 °F /  9.7 °C 46.4 °F /  8.0 °C 30.6 in /  1035.4 hPa NE 1 mph /  1.6 km/h 10 mph /  16.1 km/h 89 % 0 in /  0.0 mm
11:42 50 °F /  10.0 °C 46.6 °F /  8.1 °C 30.6 in /  1035.4 hPa NNE 2 mph /  3.2 km/h 11 mph /  17.7 km/h 88 % 0 in /  0.0 mm
11:47 50.5 °F /  10.3 °C 46.8 °F /  8.2 °C 30.6 in /  1035.4 hPa NNE 4 mph /  6.4 km/h 11 mph /  17.7 km/h 87 % 0 in /  0.0 mm
11:57 50.7 °F /  10.4 °C 46.8 °F /  8.2 °C 30.6 in /  1035.4 hPa East 2 mph /  3.2 km/h 9 mph /  14.5 km/h 86 % 0 in /  0.0 mm
12:02 51.4 °F /  10.8 °C 47.5 °F /  8.6 °C 30.6 in /  1035.4 hPa Calm   7 mph /  11.3 km/h 86 % 0 in /  0.0 mm
12:07 51.4 °F /  10.8 °C 47.1 °F /  8.4 °C 30.6 in /  1035.4 hPa NE 2 mph /  3.2 km/h 7 mph /  11.3 km/h 85 % 0 in /  0.0 mm
12:12 52.2 °F /  11.2 °C 47.5 °F /  8.6 °C 30.6 in /  1035.4 hPa ENE 2 mph /  3.2 km/h 7 mph /  11.3 km/h 84 % 0 in /  0.0 mm
12:17 52.2 °F /  11.2 °C 47.1 °F /  8.4 °C 30.6 in /  1035.4 hPa East 3 mph /  4.8 km/h 7 mph /  11.3 km/h 83 % 0 in /  0.0 mm
12:22 52.2 °F /  11.2 °C 47.5 °F /  8.6 °C 30.6 in /  1035.4 hPa NE 4 mph /  6.4 km/h 7 mph /  11.3 km/h 84 % 0 in /  0.0 mm
12:32 53.1 °F /  11.7 °C 48 °F /  8.9 °C 30.6 in /  1035.4 hPa NE 4 mph /  6.4 km/h 7 mph /  11.3 km/h 83 % 0 in /  0.0 mm
12:42 53.6 °F /  12.0 °C 47.8 °F /  8.8 °C 30.6 in /  1035.1 hPa NNE 3 mph /  4.8 km/h 7 mph /  11.3 km/h 81 % 0 in /  0.0 mm
12:52 53.8 °F /  12.1 °C 48 °F /  8.9 °C 30.6 in /  1035.1 hPa ENE 4 mph /  6.4 km/h 9 mph /  14.5 km/h 81 % 0 in /  0.0 mm
12:57 54.1 °F /  12.3 °C 48 °F /  8.9 °C 30.6 in /  1035.1 hPa North 2 mph /  3.2 km/h 9 mph /  14.5 km/h 80 % 0 in /  0.0 mm
13:02 54.1 °F /  12.3 °C 48 °F /  8.9 °C 30.6 in /  1035.1 hPa Calm   11 mph /  17.7 km/h 80 % 0 in /  0.0 mm
13:07 54.5 °F /  12.5 °C 47.1 °F /  8.4 °C 30.6 in /  1034.8 hPa NNE 2 mph /  3.2 km/h 11 mph /  17.7 km/h 76 % 0 in /  0.0 mm
13:12 54.7 °F /  12.6 °C 48.4 °F /  9.1 °C 30.6 in /  1034.8 hPa NNW 3 mph /  4.8 km/h 11 mph /  17.7 km/h 79 % 0 in /  0.0 mm
13:17 55.2 °F /  12.9 °C 47.8 °F /  8.8 °C 30.6 in /  1034.8 hPa NNE 3 mph /  4.8 km/h 10 mph /  16.1 km/h 76 % 0 in /  0.0 mm
13:22 55.6 °F /  13.1 °C 47.1 °F /  8.4 °C 30.6 in /  1034.8 hPa Calm   10 mph /  16.1 km/h 73 % 0 in /  0.0 mm
13:27 55.6 °F /  13.1 °C 47.1 °F /  8.4 °C 30.6 in /  1034.8 hPa WNW 1 mph /  1.6 km/h 7 mph /  11.3 km/h 73 % 0 in /  0.0 mm
13:32 55.9 °F /  13.3 °C 47.1 °F /  8.4 °C 30.6 in /  1034.8 hPa WNW 1 mph /  1.6 km/h 7 mph /  11.3 km/h 72 % 0 in /  0.0 mm
13:37 56.1 °F /  13.4 °C 47.7 °F /  8.7 °C 30.6 in /  1034.8 hPa North 3 mph /  4.8 km/h 7 mph /  11.3 km/h 73 % 0 in /  0.0 mm
13:42 56.1 °F /  13.4 °C 47.7 °F /  8.7 °C 30.6 in /  1034.8 hPa Calm   8 mph /  12.9 km/h 73 % 0 in /  0.0 mm
13:47 56.5 °F /  13.6 °C 47.1 °F /  8.4 °C 30.6 in /  1034.8 hPa NNE 8 mph /  12.9 km/h 8 mph /  12.9 km/h 71 % 0 in /  0.0 mm
13:57 57.2 °F /  14.0 °C 47.1 °F /  8.4 °C 30.6 in /  1034.8 hPa Calm   10 mph /  16.1 km/h 69 % 0 in /  0.0 mm
14:02 57.9 °F /  14.4 °C 48.2 °F /  9.0 °C 30.6 in /  1034.8 hPa North 3 mph /  4.8 km/h 10 mph /  16.1 km/h 70 % 0 in /  0.0 mm
14:07 58.1 °F /  14.5 °C 48.4 °F /  9.1 °C 30.5 in /  1034.4 hPa NNE 2 mph /  3.2 km/h 5 mph /  8.0 km/h 70 % 0 in /  0.0 mm
14:12 57.7 °F /  14.3 °C 46.9 °F /  8.3 °C 30.5 in /  1034.4 hPa NNW 7 mph /  11.3 km/h 7 mph /  11.3 km/h 67 % 0 in /  0.0 mm
14:17 57.7 °F /  14.3 °C 46.4 °F /  8.0 °C 30.5 in /  1034.4 hPa NW 1 mph /  1.6 km/h 7 mph /  11.3 km/h 66 % 0 in /  0.0 mm
14:27 57.9 °F /  14.4 °C 46.9 °F /  8.3 °C 30.5 in /  1034.4 hPa NNW 3 mph /  4.8 km/h 7 mph /  11.3 km/h 67 % 0 in /  0.0 mm
14:32 58.3 °F /  14.6 °C 45.7 °F /  7.6 °C 30.5 in /  1034.4 hPa NW 5 mph /  8.0 km/h 7 mph /  11.3 km/h 63 % 0 in /  0.0 mm
14:37 58.3 °F /  14.6 °C 46.2 °F /  7.9 °C 30.5 in /  1034.4 hPa NE 2 mph /  3.2 km/h 7 mph /  11.3 km/h 64 % 0 in /  0.0 mm
14:42 58.5 °F /  14.7 °C 46.4 °F /  8.0 °C 30.5 in /  1034.1 hPa Calm   7 mph /  11.3 km/h 64 % 0 in /  0.0 mm
14:47 58.8 °F /  14.9 °C 46.2 °F /  7.9 °C 30.5 in /  1034.1 hPa NNE 1 mph /  1.6 km/h 6 mph /  9.7 km/h 63 % 0 in /  0.0 mm
14:52 58.6 °F /  14.8 °C 46.6 °F /  8.1 °C 30.5 in /  1034.1 hPa West 3 mph /  4.8 km/h 7 mph /  11.3 km/h 64 % 0 in /  0.0 mm
14:57 58.6 °F /  14.8 °C 45.7 °F /  7.6 °C 30.5 in /  1034.1 hPa WNW 1 mph /  1.6 km/h 7 mph /  11.3 km/h 62 % 0 in /  0.0 mm
15:02 58.3 °F /  14.6 °C 45.7 °F /  7.6 °C 30.5 in /  1034.1 hPa Calm   7 mph /  11.3 km/h 63 % 0 in /  0.0 mm
15:07 58.3 °F /  14.6 °C 45.3 °F /  7.4 °C 30.5 in /  1034.1 hPa NE 6 mph /  9.7 km/h 7 mph /  11.3 km/h 62 % 0 in /  0.0 mm
15:17 58.5 °F /  14.7 °C 45.1 °F /  7.3 °C 30.5 in /  1033.7 hPa NE 2 mph /  3.2 km/h 8 mph /  12.9 km/h 61 % 0 in /  0.0 mm
15:22 58.5 °F /  14.7 °C 44.2 °F /  6.8 °C 30.5 in /  1033.7 hPa ENE 3 mph /  4.8 km/h 8 mph /  12.9 km/h 59 % 0 in /  0.0 mm
15:27 58.6 °F /  14.8 °C 44.8 °F /  7.1 °C 30.5 in /  1033.7 hPa WNW 1 mph /  1.6 km/h 8 mph /  12.9 km/h 60 % 0 in /  0.0 mm
15:37 59.4 °F /  15.2 °C 43.7 °F /  6.5 °C 30.5 in /  1033.7 hPa NW 2 mph /  3.2 km/h 6 mph /  9.7 km/h 56 % 0 in /  0.0 mm
15:42 59.2 °F /  15.1 °C 43.9 °F /  6.6 °C 30.5 in /  1033.7 hPa NW 1 mph /  1.6 km/h 7 mph /  11.3 km/h 57 % 0 in /  0.0 mm
15:47 58.8 °F /  14.9 °C 43.7 °F /  6.5 °C 30.5 in /  1033.7 hPa East 2 mph /  3.2 km/h 8 mph /  12.9 km/h 57 % 0 in /  0.0 mm
15:52 59 °F /  15.0 °C 41.9 °F /  5.5 °C 30.5 in /  1033.7 hPa NW 3 mph /  4.8 km/h 8 mph /  12.9 km/h 53 % 0 in /  0.0 mm
15:57 59.2 °F /  15.1 °C 42.6 °F /  5.9 °C 30.5 in /  1033.4 hPa North 5 mph /  8.0 km/h 8 mph /  12.9 km/h 54 % 0 in /  0.0 mm
16:02 59 °F /  15.0 °C 41.9 °F /  5.5 °C 30.5 in /  1033.4 hPa NNE 2 mph /  3.2 km/h 6 mph /  9.7 km/h 53 % 0 in /  0.0 mm
16:07 59.4 °F /  15.2 °C 43.2 °F /  6.2 °C 30.5 in /  1033.4 hPa NNW 1 mph /  1.6 km/h 6 mph /  9.7 km/h 55 % 0 in /  0.0 mm
16:12 59.5 °F /  15.3 °C 43.3 °F /  6.3 °C 30.5 in /  1033.4 hPa WNW 2 mph /  3.2 km/h 6 mph /  9.7 km/h 55 % 0 in /  0.0 mm
16:17 60.1 °F /  15.6 °C 43.3 °F /  6.3 °C 30.5 in /  1033.4 hPa Calm   5 mph /  8.0 km/h 54 % 0 in /  0.0 mm
16:22 60.3 °F /  15.7 °C 43.5 °F /  6.4 °C 30.5 in /  1033.4 hPa NW 4 mph /  6.4 km/h 5 mph /  8.0 km/h 54 % 0 in /  0.0 mm
16:27 59.7 °F /  15.4 °C 43.5 °F /  6.4 °C 30.5 in /  1033.4 hPa North 1 mph /  1.6 km/h 6 mph /  9.7 km/h 55 % 0 in /  0.0 mm
16:32 59.5 °F /  15.3 °C 43.3 °F /  6.3 °C 30.5 in /  1033.4 hPa NE 8 mph /  12.9 km/h 8 mph /  12.9 km/h 55 % 0 in /  0.0 mm
16:37 59.5 °F /  15.3 °C 43.3 °F /  6.3 °C 30.5 in /  1033.4 hPa North 5 mph /  8.0 km/h 8 mph /  12.9 km/h 55 % 0 in /  0.0 mm
16:42 59.5 °F /  15.3 °C 43.3 °F /  6.3 °C 30.5 in /  1033.4 hPa NNW 3 mph /  4.8 km/h 8 mph /  12.9 km/h 55 % 0 in /  0.0 mm
16:47 59.5 °F /  15.3 °C 42.8 °F /  6.0 °C 30.5 in /  1033.4 hPa Calm   8 mph /  12.9 km/h 54 % 0 in /  0.0 mm
16:52 59.7 °F /  15.4 °C 44.1 °F /  6.7 °C 30.5 in /  1033.4 hPa NNE 5 mph /  8.0 km/h 8 mph /  12.9 km/h 56 % 0 in /  0.0 mm
16:57 59.7 °F /  15.4 °C 44.4 °F /  6.9 °C 30.5 in /  1033.4 hPa NNW 3 mph /  4.8 km/h 9 mph /  14.5 km/h 57 % 0 in /  0.0 mm
17:02 59.4 °F /  15.2 °C 43.7 °F /  6.5 °C 30.5 in /  1033.4 hPa NW 1 mph /  1.6 km/h 9 mph /  14.5 km/h 56 % 0 in /  0.0 mm
17:07 59.2 °F /  15.1 °C 43.5 °F /  6.4 °C 30.5 in /  1033.4 hPa NNE 5 mph /  8.0 km/h 9 mph /  14.5 km/h 56 % 0 in /  0.0 mm
17:12 59.2 °F /  15.1 °C 44.4 °F /  6.9 °C 30.5 in /  1033.4 hPa NNE 4 mph /  6.4 km/h 8 mph /  12.9 km/h 58 % 0 in /  0.0 mm
17:17 59 °F /  15.0 °C 43.3 °F /  6.3 °C 30.5 in /  1033.4 hPa North 3 mph /  4.8 km/h 8 mph /  12.9 km/h 56 % 0 in /  0.0 mm
17:22 59 °F /  15.0 °C 44.8 °F /  7.1 °C 30.5 in /  1033.4 hPa North 5 mph /  8.0 km/h 8 mph /  12.9 km/h 59 % 0 in /  0.0 mm
17:27 58.8 °F /  14.9 °C 43.7 °F /  6.5 °C 30.5 in /  1033.7 hPa NNE 7 mph /  11.3 km/h 9 mph /  14.5 km/h 57 % 0 in /  0.0 mm
17:32 58.6 °F /  14.8 °C 43.9 °F /  6.6 °C 30.5 in /  1033.7 hPa NNW 4 mph /  6.4 km/h 9 mph /  14.5 km/h 58 % 0 in /  0.0 mm
17:37 58.6 °F /  14.8 °C 43.9 °F /  6.6 °C 30.5 in /  1033.7 hPa NNE 5 mph /  8.0 km/h 9 mph /  14.5 km/h 58 % 0 in /  0.0 mm
17:42 58.5 °F /  14.7 °C 43.7 °F /  6.5 °C 30.5 in /  1033.7 hPa NNW 4 mph /  6.4 km/h 10 mph /  16.1 km/h 58 % 0 in /  0.0 mm
17:47 58.3 °F /  14.6 °C 43.5 °F /  6.4 °C 30.5 in /  1033.7 hPa NNW 3 mph /  4.8 km/h 10 mph /  16.1 km/h 58 % 0 in /  0.0 mm
17:52 58.3 °F /  14.6 °C 43.5 °F /  6.4 °C 30.5 in /  1033.7 hPa NW 3 mph /  4.8 km/h 10 mph /  16.1 km/h 58 % 0 in /  0.0 mm
17:57 57.9 °F /  14.4 °C 43.2 °F /  6.2 °C 30.5 in /  1033.7 hPa NNW 6 mph /  9.7 km/h 8 mph /  12.9 km/h 58 % 0 in /  0.0 mm
18:02 57.9 °F /  14.4 °C 43.2 °F /  6.2 °C 30.5 in /  1033.7 hPa NNW 2 mph /  3.2 km/h 8 mph /  12.9 km/h 58 % 0 in /  0.0 mm
18:07 57.9 °F /  14.4 °C 43.2 °F /  6.2 °C 30.5 in /  1033.7 hPa NNW 4 mph /  6.4 km/h 8 mph /  12.9 km/h 58 % 0 in /  0.0 mm
18:12 57.7 °F /  14.3 °C 43.5 °F /  6.4 °C 30.5 in /  1033.7 hPa North 3 mph /  4.8 km/h 8 mph /  12.9 km/h 59 % 0 in /  0.0 mm
18:17 57.6 °F /  14.2 °C 43.3 °F /  6.3 °C 30.5 in /  1033.7 hPa North 4 mph /  6.4 km/h 8 mph /  12.9 km/h 59 % 0 in /  0.0 mm
18:22 57.2 °F /  14.0 °C 43.5 °F /  6.4 °C 30.5 in /  1033.7 hPa NNW 1 mph /  1.6 km/h 6 mph /  9.7 km/h 60 % 0 in /  0.0 mm
18:32 56.5 °F /  13.6 °C 43.2 °F /  6.2 °C 30.5 in /  1033.7 hPa North 2 mph /  3.2 km/h 6 mph /  9.7 km/h 61 % 0 in /  0.0 mm
18:42 55.8 °F /  13.2 °C 42.4 °F /  5.8 °C 30.5 in /  1033.7 hPa North 2 mph /  3.2 km/h 5 mph /  8.0 km/h 61 % 0 in /  0.0 mm
18:47 55.6 °F /  13.1 °C 42.3 °F /  5.7 °C 30.5 in /  1033.7 hPa North 2 mph /  3.2 km/h 5 mph /  8.0 km/h 61 % 0 in /  0.0 mm
18:57 54.9 °F /  12.7 °C 42.4 °F /  5.8 °C 30.5 in /  1034.1 hPa NNW 1 mph /  1.6 km/h 4 mph /  6.4 km/h 63 % 0 in /  0.0 mm
19:02 54.7 °F /  12.6 °C 42.8 °F /  6.0 °C 30.5 in /  1034.1 hPa NW 1 mph /  1.6 km/h 3 mph /  4.8 km/h 64 % 0 in /  0.0 mm
19:07 54.7 °F /  12.6 °C 42.8 °F /  6.0 °C 30.5 in /  1033.7 hPa NNW 1 mph /  1.6 km/h 3 mph /  4.8 km/h 64 % 0 in /  0.0 mm
19:12 54.5 °F /  12.5 °C 42.6 °F /  5.9 °C 30.5 in /  1033.7 hPa NW 1 mph /  1.6 km/h 3 mph /  4.8 km/h 64 % 0 in /  0.0 mm
19:17 54.3 °F /  12.4 °C 42.8 °F /  6.0 °C 30.5 in /  1033.7 hPa NW 1 mph /  1.6 km/h 3 mph /  4.8 km/h 65 % 0 in /  0.0 mm
19:22 54.1 °F /  12.3 °C 42.6 °F /  5.9 °C 30.5 in /  1033.7 hPa NW 1 mph /  1.6 km/h 3 mph /  4.8 km/h 65 % 0 in /  0.0 mm
19:27 54 °F /  12.2 °C 42.8 °F /  6.0 °C 30.5 in /  1033.7 hPa NNW 1 mph /  1.6 km/h 3 mph /  4.8 km/h 66 % 0 in /  0.0 mm
19:37 53.4 °F /  11.9 °C 43.2 °F /  6.2 °C 30.5 in /  1033.7 hPa NNW 2 mph /  3.2 km/h 3 mph /  4.8 km/h 68 % 0 in /  0.0 mm
19:42 53.1 °F /  11.7 °C 43.2 °F /  6.2 °C 30.5 in /  1034.1 hPa NNW 1 mph /  1.6 km/h 3 mph /  4.8 km/h 69 % 0 in /  0.0 mm
19:47 52.7 °F /  11.5 °C 43.2 °F /  6.2 °C 30.5 in /  1034.1 hPa NNW 3 mph /  4.8 km/h 3 mph /  4.8 km/h 70 % 0 in /  0.0 mm
19:52 52.3 °F /  11.3 °C 43.2 °F /  6.2 °C 30.5 in /  1034.1 hPa NW 2 mph /  3.2 km/h 3 mph /  4.8 km/h 71 % 0 in /  0.0 mm
19:57 52 °F /  11.1 °C 43.2 °F /  6.2 °C 30.5 in /  1034.1 hPa Calm   3 mph /  4.8 km/h 72 % 0 in /  0.0 mm
20:02 51.4 °F /  10.8 °C 43.2 °F /  6.2 °C 30.5 in /  1034.1 hPa Calm   3 mph /  4.8 km/h 73 % 0 in /  0.0 mm
20:07 51.1 °F /  10.6 °C 42.8 °F /  6.0 °C 30.5 in /  1034.1 hPa Calm   2 mph /  3.2 km/h 73 % 0 in /  0.0 mm
20:12 50.7 °F /  10.4 °C 42.8 °F /  6.0 °C 30.5 in /  1034.1 hPa NNW 1 mph /  1.6 km/h 2 mph /  3.2 km/h 74 % 0 in /  0.0 mm
20:17 50.4 °F /  10.2 °C 42.4 °F /  5.8 °C 30.5 in /  1034.1 hPa Calm   2 mph /  3.2 km/h 74 % 0 in /  0.0 mm
20:22 50.2 °F /  10.1 °C 42.6 °F /  5.9 °C 30.5 in /  1034.1 hPa Calm   2 mph /  3.2 km/h 75 % 0 in /  0.0 mm
20:27 50 °F /  10.0 °C 42.4 °F /  5.8 °C 30.5 in /  1034.1 hPa Calm   2 mph /  3.2 km/h 75 % 0 in /  0.0 mm
20:32 49.8 °F /  9.9 °C 42.6 °F /  5.9 °C 30.5 in /  1034.1 hPa Calm   2 mph /  3.2 km/h 76 % 0 in /  0.0 mm
20:42 49.5 °F /  9.7 °C 42.3 °F /  5.7 °C 30.5 in /  1034.1 hPa Calm   2 mph /  3.2 km/h 76 % 0 in /  0.0 mm
20:47 49.3 °F /  9.6 °C 42.1 °F /  5.6 °C 30.5 in /  1034.1 hPa Calm   2 mph /  3.2 km/h 76 % 0 in /  0.0 mm
20:52 49.3 °F /  9.6 °C 42.4 °F /  5.8 °C 30.5 in /  1034.1 hPa Calm   2 mph /  3.2 km/h 77 % 0 in /  0.0 mm
20:57 48.9 °F /  9.4 °C 42.1 °F /  5.6 °C 30.5 in /  1034.4 hPa Calm   2 mph /  3.2 km/h 77 % 0 in /  0.0 mm
21:02 48.9 °F /  9.4 °C 42.1 °F /  5.6 °C 30.5 in /  1034.4 hPa North 1 mph /  1.6 km/h 3 mph /  4.8 km/h 77 % 0 in /  0.0 mm
21:12 49.3 °F /  9.6 °C 42.1 °F /  5.6 °C 30.5 in /  1034.4 hPa North 2 mph /  3.2 km/h 4 mph /  6.4 km/h 76 % 0 in /  0.0 mm
21:17 49.3 °F /  9.6 °C 42.1 °F /  5.6 °C 30.5 in /  1034.4 hPa WNW 2 mph /  3.2 km/h 4 mph /  6.4 km/h 76 % 0 in /  0.0 mm
21:22 49.3 °F /  9.6 °C 42.1 °F /  5.6 °C 30.5 in /  1034.4 hPa NNW 2 mph /  3.2 km/h 3 mph /  4.8 km/h 76 % 0 in /  0.0 mm
21:27 49.3 °F /  9.6 °C 42.1 °F /  5.6 °C 30.5 in /  1034.4 hPa NNW 1 mph /  1.6 km/h 3 mph /  4.8 km/h 76 % 0 in /  0.0 mm
21:32 48.9 °F /  9.4 °C 42.1 °F /  5.6 °C 30.5 in /  1034.4 hPa North 1 mph /  1.6 km/h 4 mph /  6.4 km/h 77 % 0 in /  0.0 mm
21:37 48.7 °F /  9.3 °C 41.9 °F /  5.5 °C 30.5 in /  1034.4 hPa Calm   4 mph /  6.4 km/h 77 % 0 in /  0.0 mm
21:42 48.4 °F /  9.1 °C 41.5 °F /  5.3 °C 30.5 in /  1034.4 hPa Calm   4 mph /  6.4 km/h 77 % 0 in /  0.0 mm
21:47 48 °F /  8.9 °C 41.5 °F /  5.3 °C 30.5 in /  1034.4 hPa Calm   3 mph /  4.8 km/h 78 % 0 in /  0.0 mm
21:52 47.8 °F /  8.8 °C 41.7 °F /  5.4 °C 30.5 in /  1034.4 hPa Calm   2 mph /  3.2 km/h 79 % 0 in /  0.0 mm
21:57 47.7 °F /  8.7 °C 41.5 °F /  5.3 °C 30.5 in /  1034.4 hPa Calm   2 mph /  3.2 km/h 79 % 0 in /  0.0 mm
22:02 47.7 °F /  8.7 °C 41.5 °F /  5.3 °C 30.5 in /  1034.4 hPa Calm   2 mph /  3.2 km/h 79 % 0 in /  0.0 mm
22:07 47.5 °F /  8.6 °C 41.4 °F /  5.2 °C 30.5 in /  1034.4 hPa Calm   1 mph /  1.6 km/h 79 % 0 in /  0.0 mm
22:12 47.1 °F /  8.4 °C 41 °F /  5.0 °C 30.5 in /  1034.4 hPa Calm   1 mph /  1.6 km/h 79 % 0 in /  0.0 mm
22:17 46.6 °F /  8.1 °C 41 °F /  5.0 °C 30.5 in /  1034.4 hPa WNW 1 mph /  1.6 km/h 2 mph /  3.2 km/h 81 % 0 in /  0.0 mm
22:22 46.2 °F /  7.9 °C 40.6 °F /  4.8 °C 30.5 in /  1034.4 hPa West 2 mph /  3.2 km/h 2 mph /  3.2 km/h 81 % 0 in /  0.0 mm
22:27 46 °F /  7.8 °C 40.8 °F /  4.9 °C 30.5 in /  1034.4 hPa West 1 mph /  1.6 km/h 2 mph /  3.2 km/h 82 % 0 in /  0.0 mm
22:32 45.9 °F /  7.7 °C 40.3 °F /  4.6 °C 30.5 in /  1034.4 hPa WNW 1 mph /  1.6 km/h 2 mph /  3.2 km/h 81 % 0 in /  0.0 mm
22:37 45.9 °F /  7.7 °C 40.6 °F /  4.8 °C 30.5 in /  1034.1 hPa WNW 1 mph /  1.6 km/h 2 mph /  3.2 km/h 82 % 0 in /  0.0 mm
22:42 46.2 °F /  7.9 °C 40.5 °F /  4.7 °C 30.5 in /  1034.4 hPa WNW 1 mph /  1.6 km/h 2 mph /  3.2 km/h 80 % 0 in /  0.0 mm
22:47 46.6 °F /  8.1 °C 40.5 °F /  4.7 °C 30.5 in /  1034.4 hPa Calm   2 mph /  3.2 km/h 79 % 0 in /  0.0 mm
22:57 47.1 °F /  8.4 °C 39.9 °F /  4.4 °C 30.5 in /  1034.4 hPa Calm   2 mph /  3.2 km/h 76 % 0 in /  0.0 mm
23:02 47.1 °F /  8.4 °C 39.9 °F /  4.4 °C 30.5 in /  1034.4 hPa NW 3 mph /  4.8 km/h 3 mph /  4.8 km/h 76 % 0 in /  0.0 mm
23:07 47.1 °F /  8.4 °C 39.9 °F /  4.4 °C 30.5 in /  1034.4 hPa NW 2 mph /  3.2 km/h 3 mph /  4.8 km/h 76 % 0 in /  0.0 mm
23:12 47.1 °F /  8.4 °C 39.6 °F /  4.2 °C 30.5 in /  1034.4 hPa NNW 1 mph /  1.6 km/h 3 mph /  4.8 km/h 75 % 0 in /  0.0 mm
23:17 47.3 °F /  8.5 °C 39.7 °F /  4.3 °C 30.5 in /  1034.4 hPa NW 1 mph /  1.6 km/h 3 mph /  4.8 km/h 75 % 0 in /  0.0 mm
23:22 47.1 °F /  8.4 °C 39.6 °F /  4.2 °C 30.5 in /  1034.4 hPa NW 2 mph /  3.2 km/h 3 mph /  4.8 km/h 75 % 0 in /  0.0 mm
23:32 47.1 °F /  8.4 °C 39.6 °F /  4.2 °C 30.5 in /  1034.4 hPa NW 2 mph /  3.2 km/h 3 mph /  4.8 km/h 75 % 0 in /  0.0 mm
23:37 47.3 °F /  8.5 °C 40.1 °F /  4.5 °C 30.5 in /  1034.4 hPa NW 2 mph /  3.2 km/h 4 mph /  6.4 km/h 76 % 0 in /  0.0 mm
23:42 47.5 °F /  8.6 °C 40.3 °F /  4.6 °C 30.5 in /  1034.1 hPa NW 2 mph /  3.2 km/h 4 mph /  6.4 km/h 76 % 0 in /  0.0 mm
23:47 47.5 °F /  8.6 °C 40.3 °F /  4.6 °C 30.5 in /  1034.1 hPa NW 1 mph /  1.6 km/h 4 mph /  6.4 km/h 76 % 0 in /  0.0 mm
23:57 47.3 °F /  8.5 °C 40.8 °F /  4.9 °C 30.5 in /  1034.1 hPa North 1 mph /  1.6 km/h 4 mph /  6.4 km/h 78 % 0 in /  0.0 mm
Meteo18
Compliments of Weather Underground - 4 mb

Script developed by  Jim McMurry - jmcmurry@mwt.net Adapted for the template by  Wim van der Kuil - Leuven-Template.eu

You find our weather info also at:

European Weather Network

Weather Underground

Equipment we use:

Weather-station
Davis Vue

Weather-program
Meteohub

Weather-server
Raspberry PI 2 B+

Provider
1 and 1

Davis Vue

Meteohub

Raspberry PI 2 B+

1 and 1